createdAt,value
2018-07-08T00:01:50.274Z,53.00
2018-07-08T00:04:19.577Z,53.30
2018-07-08T00:06:49.642Z,52.51
2018-07-08T00:09:18.906Z,53.35
2018-07-08T00:11:48.308Z,53.76
2018-07-08T00:14:17.705Z,53.99
2018-07-08T00:16:47.096Z,54.75
2018-07-08T00:19:16.369Z,55.26
2018-07-08T00:21:45.616Z,55.42
2018-07-08T00:24:14.880Z,54.81
2018-07-08T00:26:44.217Z,54.50
2018-07-08T00:29:13.594Z,54.19
2018-07-08T00:31:43.095Z,54.83
2018-07-08T00:34:12.409Z,54.41
2018-07-08T00:36:41.673Z,55.11
2018-07-08T00:39:11.228Z,53.77
2018-07-08T00:41:40.484Z,54.42
2018-07-08T00:44:09.724Z,54.66
2018-07-08T00:46:39.232Z,54.25
2018-07-08T00:49:08.745Z,55.38
2018-07-08T00:51:38.008Z,56.41
2018-07-08T00:54:07.436Z,58.93
2018-07-08T00:56:36.711Z,57.44
2018-07-08T00:59:06.921Z,57.60
2018-07-08T01:01:36.384Z,56.66
2018-07-08T01:04:05.709Z,56.30
2018-07-08T01:06:35.070Z,57.11
2018-07-08T01:09:04.997Z,56.23
2018-07-08T01:11:34.286Z,57.70
2018-07-08T01:14:03.636Z,56.95
2018-07-08T01:16:32.919Z,59.60
2018-07-08T01:19:02.165Z,59.88
2018-07-08T01:21:31.463Z,59.42
2018-07-08T01:24:00.749Z,59.10
2018-07-08T01:26:30.164Z,59.26
2018-07-08T01:28:59.611Z,58.82
2018-07-08T01:31:28.888Z,60.04
2018-07-08T01:33:58.226Z,58.74
2018-07-08T01:36:27.516Z,60.72
2018-07-08T01:38:56.913Z,61.07
2018-07-08T01:41:26.159Z,61.91
2018-07-08T01:43:55.459Z,60.45
2018-07-08T01:46:24.772Z,60.96
2018-07-08T01:48:54.140Z,61.40
2018-07-08T01:51:23.422Z,62.60
2018-07-08T01:53:52.901Z,62.03
2018-07-08T01:56:22.179Z,61.52
2018-07-08T01:58:51.590Z,60.91
2018-07-08T02:01:20.840Z,59.83
2018-07-08T02:03:50.305Z,59.91
2018-07-08T02:06:19.625Z,59.47
2018-07-08T02:08:49.242Z,59.94
2018-07-08T02:11:18.598Z,60.77
2018-07-08T02:13:47.940Z,60.70
2018-07-08T02:16:17.289Z,61.33
2018-07-08T02:18:46.619Z,61.20
2018-07-08T02:21:16.060Z,60.13
2018-07-08T02:23:45.911Z,60.25
2018-07-08T02:26:15.445Z,59.93
2018-07-08T02:28:44.701Z,60.77
2018-07-08T02:31:14.132Z,60.52
2018-07-08T02:33:43.396Z,60.32
2018-07-08T02:36:12.694Z,62.55
2018-07-08T02:38:41.975Z,64.15
2018-07-08T02:41:11.398Z,62.60
2018-07-08T02:43:40.678Z,62.89
2018-07-08T02:46:10.037Z,62.42
2018-07-08T02:48:40.439Z,61.66
2018-07-08T02:51:09.715Z,61.29
2018-07-08T02:53:39.003Z,63.58
2018-07-08T02:56:08.369Z,62.59
2018-07-08T02:58:40.672Z,63.13
2018-07-08T03:01:10.033Z,63.02
2018-07-08T03:03:39.316Z,64.56
2018-07-08T03:06:08.788Z,63.69
2018-07-08T03:08:38.196Z,66.20
2018-07-08T03:11:07.554Z,64.13
2018-07-08T03:13:37.006Z,64.53
2018-07-08T03:16:06.648Z,63.92
2018-07-08T03:18:36.107Z,63.59
2018-07-08T03:21:05.382Z,63.04
2018-07-08T03:23:34.902Z,63.28
2018-07-08T03:26:04.238Z,63.03
2018-07-08T03:28:33.561Z,63.76
2018-07-08T03:31:02.879Z,61.64
2018-07-08T03:33:32.335Z,65.19
2018-07-08T03:36:01.591Z,65.50
2018-07-08T03:38:31.009Z,64.40
2018-07-08T03:41:00.389Z,65.03
2018-07-08T03:43:29.752Z,65.99
2018-07-08T03:45:59.174Z,65.33
2018-07-08T03:48:28.551Z,64.40
2018-07-08T03:50:57.938Z,66.10
2018-07-08T03:53:27.369Z,65.68
2018-07-08T03:55:56.866Z,66.50
2018-07-08T03:58:26.377Z,67.28
2018-07-08T04:00:55.660Z,65.74
2018-07-08T04:03:25.109Z,65.73
2018-07-08T04:05:54.886Z,66.54
2018-07-08T04:08:24.293Z,65.58
2018-07-08T04:10:53.641Z,64.30
2018-07-08T04:13:23.013Z,65.24
2018-07-08T04:15:52.354Z,65.51
2018-07-08T04:18:21.698Z,65.57
2018-07-08T04:20:51.044Z,64.94
2018-07-08T04:23:20.342Z,64.65
2018-07-08T04:25:49.748Z,67.51
2018-07-08T04:28:19.105Z,67.65
2018-07-08T04:30:48.541Z,69.14
2018-07-08T04:33:17.823Z,68.27
2018-07-08T04:35:47.107Z,66.78
2018-07-08T04:38:16.492Z,70.58
2018-07-08T04:40:45.812Z,68.32
2018-07-08T04:43:15.141Z,67.97
2018-07-08T04:45:45.568Z,66.53
2018-07-08T04:48:14.980Z,64.95
2018-07-08T04:50:44.436Z,64.44
2018-07-08T04:53:13.782Z,66.41
2018-07-08T04:55:43.070Z,66.67
2018-07-08T04:58:12.470Z,66.88
2018-07-08T05:00:41.888Z,67.01
2018-07-08T05:03:11.477Z,66.74
2018-07-08T05:05:40.782Z,68.50
2018-07-08T05:08:10.292Z,66.32
2018-07-08T05:10:39.582Z,67.27
2018-07-08T05:13:08.997Z,66.37
2018-07-08T05:15:38.315Z,64.11
2018-07-08T05:18:07.908Z,62.93
2018-07-08T05:20:37.284Z,60.89
2018-07-08T05:23:06.819Z,59.28
2018-07-08T05:25:36.202Z,57.15
2018-07-08T05:28:05.936Z,53.60
2018-07-08T05:30:35.982Z,52.87
2018-07-08T05:33:05.366Z,53.11
2018-07-08T05:35:34.915Z,52.16
2018-07-08T05:38:04.481Z,52.35
2018-07-08T05:40:33.771Z,48.25
2018-07-08T05:43:03.163Z,46.30
2018-07-08T05:45:32.455Z,46.41
2018-07-08T05:48:01.879Z,44.84
2018-07-08T05:50:31.290Z,46.12
2018-07-08T05:53:00.598Z,43.89
2018-07-08T05:55:30.108Z,41.41
2018-07-08T05:57:59.524Z,40.81
2018-07-08T06:00:28.869Z,38.94
2018-07-08T06:02:58.361Z,38.93
2018-07-08T06:05:27.686Z,38.92
2018-07-08T06:07:57.053Z,36.50
2018-07-08T06:10:26.350Z,38.41
2018-07-08T06:12:55.647Z,37.27
2018-07-08T06:15:25.124Z,37.93
2018-07-08T06:17:54.626Z,34.90
2018-07-08T06:20:24.006Z,34.95
2018-07-08T06:22:53.334Z,34.18
2018-07-08T06:25:22.765Z,33.34
2018-07-08T06:27:52.033Z,31.47
2018-07-08T06:30:22.540Z,33.70
2018-07-08T06:32:51.984Z,32.10
2018-07-08T06:35:21.328Z,32.77
2018-07-08T06:37:50.777Z,31.46
2018-07-08T06:40:20.295Z,30.58
2018-07-08T06:42:49.585Z,31.42
2018-07-08T06:45:18.980Z,32.14
2018-07-08T06:47:48.463Z,31.29
2018-07-08T06:50:17.885Z,30.40
2018-07-08T06:52:47.360Z,30.32
2018-07-08T06:55:16.704Z,29.86
2018-07-08T06:57:46.071Z,29.92
2018-07-08T07:02:45.828Z,30.73
2018-07-08T07:05:15.368Z,27.22
2018-07-08T07:07:44.799Z,27.68
2018-07-08T07:10:14.181Z,27.22
2018-07-08T07:12:43.542Z,26.55
2018-07-08T07:15:12.895Z,27.32
2018-07-08T07:17:42.447Z,27.39
2018-07-08T07:20:11.777Z,26.78
2018-07-08T07:22:41.280Z,26.31
2018-07-08T07:25:11.233Z,27.21
2018-07-08T07:27:40.573Z,26.88
2018-07-08T07:30:09.916Z,26.44
2018-07-08T07:32:39.378Z,26.37
2018-07-08T07:35:08.699Z,27.33
2018-07-08T07:37:38.043Z,27.28
2018-07-08T07:40:07.486Z,27.78
2018-07-08T07:42:36.775Z,26.48
2018-07-08T07:45:06.803Z,27.94
2018-07-08T07:47:36.177Z,26.45
2018-07-08T07:50:05.673Z,27.01
2018-07-08T07:52:35.110Z,26.17
2018-07-08T07:55:04.582Z,27.52
2018-07-08T07:57:33.896Z,26.64
2018-07-08T08:00:03.375Z,27.76
2018-07-08T08:02:32.717Z,26.85
2018-07-08T08:05:02.027Z,25.32
2018-07-08T08:07:31.420Z,25.72
2018-07-08T08:10:00.780Z,25.02
2018-07-08T08:12:30.174Z,22.71
2018-07-08T08:14:59.533Z,23.91
2018-07-08T08:17:28.859Z,23.90
2018-07-08T08:19:58.215Z,25.10
2018-07-08T08:22:27.545Z,22.71
2018-07-08T08:24:56.984Z,23.17
2018-07-08T08:27:26.406Z,24.38
2018-07-08T08:29:55.764Z,23.69
2018-07-08T08:32:25.162Z,20.69
2018-07-08T08:34:58.561Z,22.76
2018-07-08T08:37:29.434Z,23.23
2018-07-08T08:39:58.833Z,25.32
2018-07-08T08:42:29.197Z,23.65
2018-07-08T08:44:59.101Z,24.54
2018-07-08T08:47:29.173Z,23.35
2018-07-08T08:49:58.683Z,22.90
2018-07-08T08:52:28.176Z,22.12
2018-07-08T08:54:57.664Z,23.21
2018-07-08T08:57:27.062Z,21.91
2018-07-08T08:59:56.701Z,23.03
2018-07-08T09:02:25.999Z,22.66
2018-07-08T09:04:55.381Z,23.12
2018-07-08T09:07:24.815Z,22.42
2018-07-08T09:09:54.328Z,22.37
2018-07-08T09:12:23.651Z,23.70
2018-07-08T09:14:52.974Z,22.93
2018-07-08T09:17:23.411Z,22.91
2018-07-08T09:19:52.725Z,22.67
2018-07-08T09:22:22.090Z,22.33
2018-07-08T09:24:51.531Z,20.79
2018-07-08T09:27:20.842Z,22.38
2018-07-08T09:29:50.204Z,21.77
2018-07-08T09:32:19.536Z,21.87
2018-07-08T09:34:48.876Z,21.87
2018-07-08T09:37:18.319Z,20.39
2018-07-08T09:39:47.684Z,21.63
2018-07-08T09:42:17.267Z,20.39
2018-07-08T09:44:46.656Z,20.39
2018-07-08T09:47:16.007Z,21.81
2018-07-08T09:49:45.376Z,20.23
2018-07-08T09:52:14.765Z,21.30
2018-07-08T09:54:44.224Z,19.77
2018-07-08T09:57:13.525Z,18.89
2018-07-08T09:59:42.862Z,20.23
2018-07-08T10:02:12.302Z,21.00
2018-07-08T10:04:41.738Z,21.58
2018-07-08T10:07:11.025Z,21.03
2018-07-08T10:09:40.320Z,20.33
2018-07-08T10:12:09.695Z,19.83
2018-07-08T10:14:39.047Z,21.59
2018-07-08T10:17:08.426Z,21.64
2018-07-08T10:19:37.857Z,20.57
2018-07-08T10:22:07.263Z,20.62
2018-07-08T10:24:36.572Z,20.57
2018-07-08T10:27:20.186Z,20.64
2018-07-08T10:29:49.515Z,21.08
2018-07-08T10:32:18.823Z,21.81
2018-07-08T10:34:48.370Z,21.14
2018-07-08T10:37:17.821Z,20.90
2018-07-08T10:39:47.334Z,21.18
2018-07-08T10:42:16.739Z,20.66
2018-07-08T10:44:46.106Z,20.00
2018-07-08T10:47:15.514Z,21.05
2018-07-08T10:49:44.864Z,22.99
2018-07-08T10:52:14.230Z,21.82
2018-07-08T10:54:43.571Z,20.10
2018-07-08T10:57:12.964Z,21.77
2018-07-08T10:59:42.318Z,21.53
2018-07-08T11:02:11.777Z,21.81
2018-07-08T11:04:41.128Z,22.16
2018-07-08T11:07:10.505Z,21.04
2018-07-08T11:09:39.887Z,22.71
2018-07-08T11:12:09.275Z,21.32
2018-07-08T11:14:38.746Z,23.72
2018-07-08T11:17:08.154Z,23.03
2018-07-08T11:19:37.581Z,23.02
2018-07-08T11:22:07.042Z,22.56
2018-07-08T11:24:36.483Z,23.24
2018-07-08T11:27:05.823Z,24.91
2018-07-08T11:29:35.206Z,27.03
2018-07-08T11:32:04.767Z,26.31
2018-07-08T11:34:34.161Z,25.92
2018-07-08T11:37:03.577Z,27.08
2018-07-08T11:39:32.985Z,25.82
2018-07-08T11:42:02.659Z,27.94
2018-07-08T11:44:32.030Z,28.55
2018-07-08T11:47:01.514Z,27.67
2018-07-08T11:49:30.951Z,28.38
2018-07-08T11:52:00.330Z,28.25
2018-07-08T11:54:29.855Z,27.72
2018-07-08T11:56:59.408Z,28.53
2018-07-08T11:59:28.848Z,28.90
2018-07-08T12:01:58.403Z,27.26
2018-07-08T12:04:27.886Z,26.01
2018-07-08T12:06:57.306Z,27.74
2018-07-08T12:09:27.050Z,28.17
2018-07-08T12:11:56.729Z,28.89
2018-07-08T12:14:26.165Z,28.12
2018-07-08T12:16:56.091Z,27.66
2018-07-08T12:19:25.623Z,27.42
2018-07-08T12:21:55.348Z,27.66
2018-07-08T12:24:24.781Z,26.90
2018-07-08T12:26:54.478Z,26.99
2018-07-08T12:29:23.879Z,26.91
2018-07-08T12:31:53.242Z,27.39
2018-07-08T12:34:22.633Z,28.05
2018-07-08T12:36:52.059Z,28.41
2018-07-08T12:39:21.640Z,27.67
2018-07-08T12:41:51.222Z,27.83
2018-07-08T12:44:20.819Z,27.83
2018-07-08T12:46:50.287Z,27.72
2018-07-08T12:49:19.801Z,27.07
2018-07-08T12:51:49.878Z,26.77
2018-07-08T12:54:19.560Z,27.46
2018-07-08T12:56:48.952Z,27.01
2018-07-08T12:59:18.420Z,27.57
2018-07-08T13:01:47.835Z,26.65
2018-07-08T13:04:17.493Z,27.45
2018-07-08T13:06:46.894Z,27.40
2018-07-08T13:09:16.420Z,27.55
2018-07-08T13:11:45.943Z,27.24
2018-07-08T13:14:15.537Z,28.07
2018-07-08T13:16:44.913Z,28.01
2018-07-08T13:19:14.480Z,29.84
2018-07-08T13:21:43.922Z,29.18
2018-07-08T13:24:13.378Z,30.29
2018-07-08T13:26:42.811Z,30.16
2018-07-08T13:29:12.254Z,29.81
2018-07-08T13:31:41.659Z,28.80
2018-07-08T13:34:11.125Z,28.59
2018-07-08T13:36:40.562Z,28.76
2018-07-08T13:39:11.004Z,29.52
2018-07-08T13:41:40.607Z,28.85
2018-07-08T13:44:10.361Z,28.48
2018-07-08T13:46:39.973Z,27.23
2018-07-08T13:49:09.388Z,28.10
2018-07-08T13:51:38.922Z,29.73
2018-07-08T13:54:08.340Z,29.27
2018-07-08T13:56:37.936Z,28.50
2018-07-08T13:59:07.749Z,28.38
2018-07-08T14:01:37.123Z,28.59
2018-07-08T14:04:06.651Z,27.52
2018-07-08T14:06:36.166Z,29.07
2018-07-08T14:09:06.458Z,29.20
2018-07-08T14:11:36.207Z,29.01
2018-07-08T14:14:05.618Z,28.72
2018-07-08T14:16:35.161Z,29.74
2018-07-08T14:19:04.777Z,28.19
2018-07-08T14:21:34.089Z,27.65
2018-07-08T14:24:03.669Z,28.07
2018-07-08T14:26:33.216Z,29.49
2018-07-08T14:29:02.783Z,29.39
2018-07-08T14:31:32.225Z,28.39
2018-07-08T14:34:01.854Z,29.58
2018-07-08T14:36:31.397Z,29.32
2018-07-08T14:39:00.897Z,28.18
2018-07-08T14:41:30.531Z,29.15
2018-07-08T14:44:00.128Z,28.78
2018-07-08T14:46:29.626Z,29.03
2018-07-08T14:48:59.126Z,29.76
2018-07-08T14:51:28.810Z,29.02
2018-07-08T14:53:58.307Z,27.13
2018-07-08T14:56:27.666Z,27.68
2018-07-08T14:58:57.138Z,28.32
2018-07-08T15:01:26.651Z,27.98
2018-07-08T15:03:56.106Z,26.89
2018-07-08T15:06:25.679Z,26.89
2018-07-08T15:08:55.072Z,26.94
2018-07-08T15:11:24.618Z,26.89
2018-07-08T15:13:53.990Z,26.80
2018-07-08T15:16:23.376Z,27.45
2018-07-08T15:18:52.892Z,25.72
2018-07-08T15:21:22.251Z,27.84
2018-07-08T15:23:51.649Z,27.32
2018-07-08T15:26:21.141Z,29.06
2018-07-08T15:28:50.879Z,27.59
2018-07-08T15:31:20.546Z,28.03
2018-07-08T15:33:49.968Z,28.31
2018-07-08T15:36:19.676Z,28.47
2018-07-08T15:38:49.015Z,28.20
2018-07-08T15:41:19.447Z,28.41
2018-07-08T15:43:49.034Z,27.66
2018-07-08T15:46:18.672Z,28.51
2018-07-08T15:48:48.050Z,27.93
2018-07-08T15:51:17.513Z,27.23
2018-07-08T15:53:47.100Z,27.90
2018-07-08T15:56:16.550Z,27.44
2018-07-08T15:58:45.944Z,26.03
2018-07-08T16:01:15.361Z,28.02
2018-07-08T16:03:44.844Z,28.73
2018-07-08T16:06:14.288Z,27.53
2018-07-08T16:08:43.931Z,28.21
2018-07-08T16:11:14.533Z,27.67
2018-07-08T16:13:44.083Z,26.48
2018-07-08T16:16:13.480Z,26.43
2018-07-08T16:18:42.972Z,27.15
2018-07-08T16:21:12.519Z,26.57
2018-07-08T16:23:41.983Z,27.78
2018-07-08T16:26:11.435Z,26.36
2018-07-08T16:28:40.940Z,28.53
2018-07-08T16:31:10.353Z,26.74
2018-07-08T16:33:39.765Z,27.89
2018-07-08T16:36:09.123Z,27.46
2018-07-08T16:38:38.599Z,26.70
2018-07-08T16:41:08.042Z,26.57
2018-07-08T16:43:37.427Z,26.67
2018-07-08T16:46:06.916Z,28.61
2018-07-08T16:48:36.425Z,27.69
2018-07-08T16:51:05.807Z,27.53
2018-07-08T16:53:35.312Z,27.72
2018-07-08T16:56:04.899Z,28.10
2018-07-08T16:58:34.210Z,27.20
2018-07-08T17:01:03.558Z,26.51
2018-07-08T17:03:32.949Z,27.48
2018-07-08T17:06:02.412Z,27.39
2018-07-08T17:08:31.860Z,28.24
2018-07-08T17:11:01.222Z,28.52
2018-07-08T17:13:30.585Z,29.08
2018-07-08T17:16:00.002Z,27.51
2018-07-08T17:18:30.640Z,29.01
2018-07-08T17:21:00.796Z,29.28
2018-07-08T17:23:30.876Z,28.14
2018-07-08T17:26:00.325Z,28.35
2018-07-08T17:28:29.718Z,28.22
2018-07-08T17:30:59.709Z,28.64
2018-07-08T17:33:29.136Z,27.95
2018-07-08T17:35:58.554Z,28.62
2018-07-08T17:38:28.272Z,28.08
2018-07-08T17:40:57.822Z,28.44
2018-07-08T17:43:27.488Z,28.92
2018-07-08T17:45:56.816Z,27.65
2018-07-08T17:48:26.112Z,29.11
2018-07-08T17:50:55.528Z,27.97
2018-07-08T17:53:24.935Z,28.17
2018-07-08T17:55:54.316Z,29.27
2018-07-08T17:58:23.702Z,28.16
2018-07-08T18:00:53.005Z,28.44
2018-07-08T18:03:22.511Z,29.15
2018-07-08T18:05:51.690Z,29.98
2018-07-08T18:08:21.241Z,30.09
2018-07-08T18:10:50.596Z,29.71
2018-07-08T18:13:19.886Z,29.81
2018-07-08T18:15:49.188Z,30.28
2018-07-08T18:18:18.520Z,29.59
2018-07-08T18:20:47.925Z,30.33
2018-07-08T18:23:17.272Z,29.11
2018-07-08T18:25:46.601Z,30.11
2018-07-08T18:28:15.934Z,30.20
2018-07-08T18:30:45.326Z,29.15
2018-07-08T18:33:14.719Z,30.41
2018-07-08T18:35:44.222Z,29.20
2018-07-08T18:38:13.956Z,29.29
2018-07-08T18:40:43.325Z,30.49
2018-07-08T18:43:12.656Z,30.87
2018-07-08T18:45:41.995Z,30.76
2018-07-08T18:48:11.330Z,29.97
2018-07-08T18:50:40.712Z,30.07
2018-07-08T18:53:10.053Z,31.12
2018-07-08T18:55:39.384Z,30.85
2018-07-08T18:58:08.797Z,30.66
2018-07-08T19:00:38.132Z,30.34
2018-07-08T19:03:07.549Z,31.43
2018-07-08T19:05:36.895Z,31.12
2018-07-08T19:08:06.401Z,31.78
2018-07-08T19:10:35.836Z,31.60
2018-07-08T19:13:05.206Z,32.07
2018-07-08T19:15:34.605Z,33.53
2018-07-08T19:18:03.967Z,34.21
2018-07-08T19:20:33.315Z,34.71
2018-07-08T19:23:02.650Z,35.58
2018-07-08T19:25:31.993Z,35.40
2018-07-08T19:28:01.434Z,36.78
2018-07-08T19:30:30.892Z,36.71
2018-07-08T19:33:00.315Z,36.91
2018-07-08T19:35:29.919Z,37.30
2018-07-08T19:37:59.274Z,38.09
2018-07-08T19:40:28.649Z,38.36
2018-07-08T19:42:58.002Z,39.08
2018-07-08T19:45:27.362Z,38.76
2018-07-08T19:47:56.710Z,39.94
2018-07-08T19:50:26.062Z,40.35
2018-07-08T19:52:55.438Z,40.43
2018-07-08T19:55:24.819Z,40.88
2018-07-08T19:57:54.709Z,40.70
2018-07-08T20:00:24.097Z,40.69
2018-07-08T20:02:53.435Z,40.29
2018-07-08T20:05:22.806Z,41.24
2018-07-08T20:07:52.301Z,41.01
2018-07-08T20:10:21.730Z,42.15
2018-07-08T20:12:51.049Z,41.85
2018-07-08T20:15:20.451Z,43.03
2018-07-08T20:17:49.865Z,42.67
2018-07-08T20:20:19.225Z,42.76
2018-07-08T20:22:48.646Z,43.26
2018-07-08T20:25:18.652Z,43.31
2018-07-08T20:27:48.109Z,43.81
2018-07-08T20:30:17.420Z,43.72
2018-07-08T20:32:46.906Z,42.70
2018-07-08T20:35:16.240Z,43.25
2018-07-08T20:37:45.534Z,44.40
2018-07-08T20:40:14.900Z,44.35
2018-07-08T20:42:44.282Z,44.68
2018-07-08T20:45:13.585Z,44.59
2018-07-08T20:47:42.913Z,45.16
2018-07-08T20:50:12.512Z,45.17
2018-07-08T20:52:41.871Z,45.13
2018-07-08T20:55:11.160Z,46.50
2018-07-08T20:57:40.466Z,45.90
2018-07-08T21:00:09.829Z,44.89
2018-07-08T21:02:39.166Z,46.47
2018-07-08T21:05:08.540Z,46.15
2018-07-08T21:07:37.869Z,46.39
2018-07-08T21:10:07.669Z,47.20
2018-07-08T21:12:37.057Z,46.80
2018-07-08T21:15:06.600Z,45.97
2018-07-08T21:17:35.945Z,47.28
2018-07-08T21:20:05.290Z,47.24
2018-07-08T21:22:34.671Z,46.35
2018-07-08T21:25:04.025Z,46.26
2018-07-08T21:27:33.392Z,48.29
2018-07-08T21:30:03.800Z,49.13
2018-07-08T21:32:33.145Z,49.04
2018-07-08T21:35:02.545Z,50.32
2018-07-08T21:37:31.878Z,49.16
2018-07-08T21:40:01.305Z,48.58
2018-07-08T21:42:31.706Z,49.49
2018-07-08T21:45:01.077Z,48.41
2018-07-08T21:47:30.460Z,48.77
2018-07-08T21:49:59.794Z,49.74
2018-07-08T21:52:29.193Z,49.52
2018-07-08T21:54:58.609Z,50.56
2018-07-08T21:57:28.033Z,49.84
2018-07-08T21:59:57.404Z,50.16
2018-07-08T22:02:26.752Z,49.63
2018-07-08T22:04:56.106Z,51.29
2018-07-08T22:07:29.591Z,49.81
2018-07-08T22:09:58.924Z,50.17
2018-07-08T22:12:28.309Z,50.18
2018-07-08T22:14:57.658Z,49.96
2018-07-08T22:17:26.982Z,50.33
2018-07-08T22:19:56.321Z,50.38
2018-07-08T22:22:25.636Z,51.40
2018-07-08T22:24:55.091Z,50.71
2018-07-08T22:27:24.408Z,50.92
2018-07-08T22:29:54.652Z,50.86
2018-07-08T22:32:24.245Z,51.60
2018-07-08T22:34:53.545Z,51.65
2018-07-08T22:37:23.052Z,51.87
2018-07-08T22:39:52.387Z,52.50
2018-07-08T22:42:21.702Z,51.80
2018-07-08T22:44:51.012Z,52.23
2018-07-08T22:47:20.375Z,52.58
2018-07-08T22:49:49.773Z,52.02
2018-07-08T22:52:19.111Z,51.43
2018-07-08T22:54:48.421Z,52.99
2018-07-08T22:57:17.826Z,53.42
2018-07-08T22:59:58.313Z,52.93
2018-07-08T23:02:38.314Z,52.42
2018-07-08T23:05:07.652Z,52.07
2018-07-08T23:07:37.346Z,52.42
2018-07-08T23:10:06.643Z,52.58
2018-07-08T23:12:36.047Z,52.46
2018-07-08T23:15:05.507Z,53.41
2018-07-08T23:17:34.893Z,53.72
2018-07-08T23:20:04.323Z,54.16
2018-07-08T23:22:44.738Z,53.56
2018-07-08T23:25:14.036Z,52.62
2018-07-08T23:27:43.309Z,53.71
2018-07-08T23:30:12.614Z,52.98
2018-07-08T23:32:48.266Z,53.80
2018-07-08T23:35:18.049Z,53.67
2018-07-08T23:37:47.325Z,53.24
2018-07-08T23:40:16.626Z,54.20
2018-07-08T23:42:45.953Z,53.07
2018-07-08T23:45:18.238Z,53.65
2018-07-08T23:47:47.634Z,54.15
2018-07-08T23:50:16.926Z,53.15
2018-07-08T23:52:46.255Z,54.33
2018-07-08T23:55:15.576Z,55.25
2018-07-08T23:57:44.890Z,55.68
